Time,TemperatureF,DewpointF,PressureIn,WindDirection,WindDirectionDegrees,WindSpeedMPH,WindSpeedGustMPH,Humidity,HourlyPrecipIn,Conditions,Clouds,dailyrainin,SolarRadiationWatts/m^2,SoftwareType,DateUTC
2013-06-10 00:03:00,68.5,64.8,29.88,SSE,153,4.0,9.0,88,0.00,,---,0.00,0.00,VWS V14.00,2013-06-10 04:03:00,
2013-06-10 00:04:00,68.5,64.8,29.88,WSW,240,3.0,9.0,88,0.00,,---,0.00,0.00,VWS V14.00,2013-06-10 04:04:00,
2013-06-10 00:09:00,68.5,64.8,29.88,ESE,120,2.0,8.0,88,0.00,,---,0.00,0.00,VWS V14.00,2013-06-10 04:09:00,
2013-06-10 00:14:00,68.5,64.8,29.88,SE,125,5.0,8.0,88,0.00,,---,0.00,0.00,VWS V14.00,2013-06-10 04:14:00,
2013-06-10 00:19:00,68.4,64.7,29.87,ESE,117,4.0,8.0,88,0.00,,---,0.00,0.00,VWS V14.00,2013-06-10 04:19:00,
2013-06-10 00:24:00,68.4,64.7,29.87,SSE,150,2.0,7.0,88,0.00,,---,0.00,0.00,VWS V14.00,2013-06-10 04:24:00,
2013-06-10 00:29:00,68.3,64.6,29.87,SE,142,5.0,6.0,88,0.00,,---,0.00,0.00,VWS V14.00,2013-06-10 04:29:00,
2013-06-10 00:33:00,68.3,64.6,29.87,SE,134,5.0,9.0,88,0.00,,---,0.00,0.00,VWS V14.00,2013-06-10 04:33:00,
2013-06-10 00:38:00,68.3,64.6,29.87,SE,130,6.0,6.0,88,0.00,,---,0.00,0.00,VWS V14.00,2013-06-10 04:38:00,
2013-06-10 00:43:00,68.2,64.5,29.86,SE,143,3.0,13.0,88,0.00,,---,0.00,0.00,VWS V14.00,2013-06-10 04:43:00,
2013-06-10 00:48:00,68.2,64.5,29.86,ESE,114,6.0,9.0,88,0.00,,---,0.00,0.00,VWS V14.00,2013-06-10 04:48:00,
2013-06-10 00:53:00,68.1,64.4,29.86,SSW,194,2.0,7.0,88,0.00,,---,0.00,0.00,VWS V14.00,2013-06-10 04:53:00,
2013-06-10 00:58:00,68.1,64.4,29.86,NE,53,2.0,6.0,88,0.00,,---,0.00,0.00,VWS V14.00,2013-06-10 04:58:00,
2013-06-10 01:03:00,68.0,64.3,29.86,SSE,159,4.0,8.0,88,0.00,,---,0.00,0.00,VWS V14.00,2013-06-10 05:03:00,
2013-06-10 01:08:00,68.0,64.3,29.86,SE,144,5.0,7.0,88,0.00,,---,0.00,0.00,VWS V14.00,2013-06-10 05:08:00,
2013-06-10 01:13:00,68.0,64.3,29.86,SE,131,5.0,9.0,88,0.00,,---,0.00,0.00,VWS V14.00,2013-06-10 05:13:00,
2013-06-10 01:18:00,68.0,64.3,29.85,SSE,154,5.0,9.0,88,0.00,,---,0.00,0.00,VWS V14.00,2013-06-10 05:18:00,
2013-06-10 01:23:00,68.0,64.3,29.85,SE,146,4.0,7.0,88,0.00,,---,0.00,0.00,VWS V14.00,2013-06-10 05:23:00,
2013-06-10 01:28:00,68.0,64.3,29.85,SE,129,5.0,9.0,88,0.00,,---,0.00,0.00,VWS V14.00,2013-06-10 05:28:00,
2013-06-10 01:33:00,67.9,64.2,29.85,SW,222,4.0,8.0,88,0.00,,---,0.00,0.00,VWS V14.00,2013-06-10 05:33:00,
2013-06-10 01:38:00,67.9,64.2,29.85,SE,140,4.0,8.0,88,0.00,,---,0.00,0.00,VWS V14.00,2013-06-10 05:38:00,
2013-06-10 01:43:00,67.8,64.1,29.84,SE,143,0.0,6.0,88,0.00,,---,0.00,0.00,VWS V14.00,2013-06-10 05:43:00,
2013-06-10 01:48:00,67.7,64.0,29.84,SSE,159,4.0,7.0,88,0.00,,---,0.00,0.00,VWS V14.00,2013-06-10 05:48:00,
2013-06-10 01:53:00,67.7,64.0,29.84,South,169,4.0,5.0,88,0.00,,---,0.00,0.00,VWS V14.00,2013-06-10 05:53:00,
2013-06-10 01:58:00,67.7,64.0,29.84,SE,142,5.0,5.0,88,0.00,,---,0.00,0.00,VWS V14.00,2013-06-10 05:58:00,
2013-06-10 02:03:00,67.6,64.2,29.84,SE,145,1.0,7.0,89,0.00,,---,0.00,0.00,VWS V14.00,2013-06-10 06:03:00,
2013-06-10 02:08:00,67.6,64.2,29.84,SSE,151,6.0,6.0,89,0.00,,---,0.00,0.00,VWS V14.00,2013-06-10 06:08:00,
2013-06-10 02:13:00,67.6,64.2,29.84,SSE,161,0.0,8.0,89,0.00,,---,0.00,0.00,VWS V14.00,2013-06-10 06:13:00,
2013-06-10 02:18:00,67.5,63.8,29.84,SE,136,2.0,6.0,88,0.00,,---,0.00,0.00,VWS V14.00,2013-06-10 06:18:00,
2013-06-10 02:23:00,67.5,63.8,29.83,SSE,152,5.0,8.0,88,0.00,,---,0.00,0.00,VWS V14.00,2013-06-10 06:23:00,
2013-06-10 02:28:00,67.6,63.9,29.83,NW,318,0.0,5.0,88,0.00,,---,0.00,0.00,VWS V14.00,2013-06-10 06:28:00,
2013-06-10 02:33:00,67.5,63.8,29.83,South,186,5.0,6.0,88,0.00,,---,0.00,0.00,VWS V14.00,2013-06-10 06:33:00,
2013-06-10 02:38:00,67.6,63.9,29.82,SSE,148,2.0,7.0,88,0.00,,---,0.00,0.00,VWS V14.00,2013-06-10 06:38:00,
2013-06-10 02:43:00,67.6,63.9,29.82,NE,52,0.0,6.0,88,0.00,,---,0.00,0.00,VWS V14.00,2013-06-10 06:43:00,
2013-06-10 02:48:00,67.5,63.8,29.82,SSE,153,3.0,5.0,88,0.00,,---,0.00,0.00,VWS V14.00,2013-06-10 06:48:00,
2013-06-10 02:53:00,67.6,63.9,29.82,SSE,155,5.0,7.0,88,0.00,,---,0.00,0.00,VWS V14.00,2013-06-10 06:53:00,
2013-06-10 02:58:00,67.6,63.9,29.81,SSE,149,6.0,7.0,88,0.00,,---,0.00,0.00,VWS V14.00,2013-06-10 06:58:00,
2013-06-10 03:03:00,67.6,63.9,29.82,ESE,118,1.0,6.0,88,0.00,,---,0.00,0.00,VWS V14.00,2013-06-10 07:03:00,
2013-06-10 03:08:00,67.6,63.9,29.82,SSW,209,3.0,6.0,88,0.00,,---,0.00,0.00,VWS V14.00,2013-06-10 07:08:00,
2013-06-10 03:13:00,67.6,63.9,29.82,SW,215,9.0,9.0,88,0.00,,---,0.00,0.00,VWS V14.00,2013-06-10 07:13:00,
2013-06-10 03:18:00,67.5,63.8,29.82,SSW,213,1.0,7.0,88,0.09,,---,0.09,0.00,VWS V14.00,2013-06-10 07:18:00,
2013-06-10 03:23:00,67.4,63.7,29.82,SW,229,5.0,6.0,88,0.14,,---,0.14,0.00,VWS V14.00,2013-06-10 07:23:00,
2013-06-10 03:28:00,67.2,63.5,29.82,South,190,1.0,7.0,88,0.16,,---,0.16,0.00,VWS V14.00,2013-06-10 07:28:00,
2013-06-10 03:33:00,67.0,63.3,29.81,SSE,148,1.0,6.0,88,0.17,,---,0.17,0.00,VWS V14.00,2013-06-10 07:33:00,
2013-06-10 03:38:00,67.0,63.0,29.81,SSE,158,0.0,3.0,87,0.18,,---,0.18,0.00,VWS V14.00,2013-06-10 07:38:00,
2013-06-10 03:43:00,66.8,62.8,29.81,SSE,149,2.0,3.0,87,0.20,,---,0.20,0.00,VWS V14.00,2013-06-10 07:43:00,
2013-06-10 03:48:00,66.8,62.8,29.81,South,191,0.0,1.0,87,0.20,,---,0.20,0.00,VWS V14.00,2013-06-10 07:48:00,
2013-06-10 03:53:00,66.7,62.7,29.80,SE,134,0.0,6.0,87,0.20,,---,0.20,0.00,VWS V14.00,2013-06-10 07:53:00,
2013-06-10 03:58:00,66.6,62.6,29.80,SE,134,0.0,1.0,87,0.21,,---,0.21,0.00,VWS V14.00,2013-06-10 07:58:00,
2013-06-10 04:03:00,66.5,62.5,29.80,SE,134,0.0,2.0,87,0.22,,---,0.22,0.00,VWS V14.00,2013-06-10 08:03:00,
2013-06-10 04:08:00,66.5,62.5,29.80,SSW,199,1.0,9.0,87,0.24,,---,0.24,0.00,VWS V14.00,2013-06-10 08:08:00,
2013-06-10 04:13:00,66.4,62.4,29.80,WSW,242,0.0,5.0,87,0.26,,---,0.26,0.00,VWS V14.00,2013-06-10 08:13:00,
2013-06-10 04:18:00,66.4,62.4,29.80,SSE,167,5.0,7.0,87,0.27,,---,0.28,0.00,VWS V14.00,2013-06-10 08:18:00,
2013-06-10 04:23:00,66.3,62.3,29.79,SSW,197,1.0,8.0,87,0.18,,---,0.29,0.00,VWS V14.00,2013-06-10 08:23:00,
2013-06-10 04:28:00,66.2,62.2,29.79,SSE,159,0.0,6.0,87,0.14,,---,0.29,0.00,VWS V14.00,2013-06-10 08:28:00,
2013-06-10 04:33:00,66.2,62.2,29.79,SSW,202,0.0,6.0,87,0.14,,---,0.30,0.00,VWS V14.00,2013-06-10 08:33:00,
2013-06-10 04:38:00,66.1,62.1,29.79,SSE,147,0.0,7.0,87,0.14,,---,0.31,0.00,VWS V14.00,2013-06-10 08:38:00,
2013-06-10 04:43:00,65.9,61.9,29.78,SSE,167,5.0,5.0,87,0.13,,---,0.31,0.00,VWS V14.00,2013-06-10 08:43:00,
2013-06-10 04:48:00,65.8,61.8,29.78,South,171,0.0,1.0,87,0.11,,---,0.31,0.00,VWS V14.00,2013-06-10 08:48:00,
2013-06-10 04:53:00,65.8,61.8,29.79,SSW,204,4.0,5.0,87,0.11,,---,0.31,0.00,VWS V14.00,2013-06-10 08:53:00,
2013-06-10 04:58:00,65.7,61.7,29.79,SW,225,0.0,4.0,87,0.11,,---,0.31,0.00,VWS V14.00,2013-06-10 08:58:00,
2013-06-10 05:03:00,65.7,61.7,29.79,SW,225,0.0,0.0,87,0.11,,---,0.32,0.00,VWS V14.00,2013-06-10 09:03:00,
2013-06-10 05:08:00,65.6,61.6,29.79,SW,225,0.0,0.0,87,0.10,,---,0.33,0.00,VWS V14.00,2013-06-10 09:08:00,
2013-06-10 05:13:00,65.5,61.5,29.78,SW,225,0.0,1.0,87,0.09,,---,0.34,0.00,VWS V14.00,2013-06-10 09:13:00,
2013-06-10 05:18:00,65.5,61.5,29.79,SW,225,0.0,2.0,87,0.07,,---,0.34,0.00,VWS V14.00,2013-06-10 09:18:00,
2013-06-10 05:23:00,65.4,61.4,29.79,SW,225,0.0,2.0,87,0.07,,---,0.35,0.00,VWS V14.00,2013-06-10 09:23:00,
2013-06-10 05:28:00,65.3,61.3,29.79,SSE,168,0.0,4.0,87,0.07,,---,0.36,0.00,VWS V14.00,2013-06-10 09:28:00,
2013-06-10 05:33:00,65.2,61.2,29.77,SSE,161,0.0,3.0,87,0.07,,---,0.36,0.00,VWS V14.00,2013-06-10 09:33:00,
2013-06-10 05:38:00,65.1,61.1,29.78,SSE,163,0.0,4.0,87,0.07,,---,0.37,0.00,VWS V14.00,2013-06-10 09:38:00,
2013-06-10 05:43:00,65.0,61.0,29.78,SSE,153,2.0,4.0,87,0.08,,---,0.39,0.00,VWS V14.00,2013-06-10 09:43:00,
2013-06-10 05:48:00,64.9,60.9,29.78,SSE,152,1.0,3.0,87,0.09,,---,0.40,0.00,VWS V14.00,2013-06-10 09:48:00,
2013-06-10 05:53:00,64.8,60.8,29.78,SSW,198,4.0,5.0,87,0.09,,---,0.40,0.00,VWS V14.00,2013-06-10 09:53:00,
2013-06-10 05:58:00,64.8,60.8,29.78,South,180,0.0,4.0,87,0.10,,---,0.41,0.00,VWS V14.00,2013-06-10 09:58:00,
2013-06-10 06:03:00,64.8,60.5,29.79,South,180,0.0,2.0,86,0.11,,---,0.42,0.00,VWS V14.00,2013-06-10 10:03:00,
2013-06-10 06:08:00,64.7,60.4,29.79,South,183,0.0,3.0,86,0.12,,---,0.44,0.00,VWS V14.00,2013-06-10 10:08:00,
2013-06-10 06:13:00,64.8,60.5,29.79,SSE,153,0.0,4.0,86,0.12,,---,0.45,0.00,VWS V14.00,2013-06-10 10:13:00,
2013-06-10 06:18:00,64.7,60.4,29.79,SSE,153,0.0,0.0,86,0.12,,---,0.46,0.00,VWS V14.00,2013-06-10 10:18:00,
2013-06-10 06:23:00,64.7,60.4,29.79,South,184,0.0,2.0,86,0.13,,---,0.47,0.00,VWS V14.00,2013-06-10 10:23:00,
2013-06-10 06:28:00,64.7,60.4,29.79,South,184,0.0,0.0,86,0.11,,---,0.47,0.00,VWS V14.00,2013-06-10 10:28:00,
2013-06-10 06:33:00,64.6,60.3,29.79,SSE,150,2.0,5.0,86,0.11,,---,0.47,0.00,VWS V14.00,2013-06-10 10:33:00,
2013-06-10 06:38:00,64.6,60.3,29.80,SSE,161,0.0,2.0,86,0.11,,---,0.47,0.00,VWS V14.00,2013-06-10 10:38:00,
2013-06-10 06:43:00,64.5,60.2,29.80,SSE,161,0.0,2.0,86,0.10,,---,0.48,0.00,VWS V14.00,2013-06-10 10:43:00,
2013-06-10 06:48:00,64.5,60.2,29.81,SSE,161,0.0,1.0,86,0.09,,---,0.48,0.00,VWS V14.00,2013-06-10 10:48:00,
2013-06-10 06:54:00,64.5,60.2,29.82,SW,233,0.0,3.0,86,0.09,,---,0.49,0.00,VWS V14.00,2013-06-10 10:54:00,
2013-06-10 06:59:00,64.5,60.2,29.82,SSW,211,0.0,5.0,86,0.09,,---,0.49,0.00,VWS V14.00,2013-06-10 10:59:00,
2013-06-10 07:04:00,64.5,60.2,29.81,SW,229,4.0,4.0,86,0.09,,---,0.50,0.00,VWS V14.00,2013-06-10 11:04:00,
2013-06-10 07:09:00,64.4,60.1,29.81,SSW,204,0.0,6.0,86,0.09,,---,0.51,0.00,VWS V14.00,2013-06-10 11:09:00,
2013-06-10 07:14:00,64.4,60.1,29.81,SW,214,0.0,5.0,86,0.08,,---,0.52,0.00,VWS V14.00,2013-06-10 11:14:00,
2013-06-10 07:19:00,64.4,60.1,29.81,SSW,210,0.0,2.0,86,0.08,,---,0.53,5.00,VWS V14.00,2013-06-10 11:19:00,
2013-06-10 07:24:00,64.4,60.1,29.80,SSW,208,0.0,1.0,86,0.08,,---,0.54,5.00,VWS V14.00,2013-06-10 11:24:00,
2013-06-10 07:29:00,64.4,60.1,29.79,SSW,207,0.0,2.0,86,0.08,,---,0.55,5.00,VWS V14.00,2013-06-10 11:29:00,
2013-06-10 07:34:00,64.4,60.1,29.81,SW,226,1.0,5.0,86,0.09,,---,0.56,5.00,VWS V14.00,2013-06-10 11:34:00,
2013-06-10 07:39:00,64.4,60.1,29.80,SSW,205,0.0,6.0,86,0.10,,---,0.57,9.00,VWS V14.00,2013-06-10 11:39:00,
2013-06-10 07:44:00,64.4,60.1,29.80,SSW,205,0.0,1.0,86,0.10,,---,0.57,7.00,VWS V14.00,2013-06-10 11:44:00,
2013-06-10 07:49:00,64.5,60.2,29.81,SW,228,2.0,5.0,86,0.09,,---,0.57,5.00,VWS V14.00,2013-06-10 11:49:00,
2013-06-10 07:54:00,64.5,60.2,29.81,WSW,258,4.0,8.0,86,0.09,,---,0.57,7.00,VWS V14.00,2013-06-10 11:54:00,
2013-06-10 07:59:00,64.4,60.1,29.81,SW,236,2.0,6.0,86,0.08,,---,0.57,16.00,VWS V14.00,2013-06-10 11:59:00,
2013-06-10 08:04:00,64.5,60.2,29.81,WSW,238,0.0,2.0,86,0.09,,---,0.58,28.00,VWS V14.00,2013-06-10 12:04:00,
2013-06-10 08:09:00,64.5,60.2,29.81,SW,232,4.0,7.0,86,0.09,,---,0.59,12.00,VWS V14.00,2013-06-10 12:09:00,
2013-06-10 08:14:00,64.5,60.2,29.82,SW,225,4.0,7.0,86,0.08,,---,0.59,11.00,VWS V14.00,2013-06-10 12:14:00,
2013-06-10 08:19:00,64.5,60.2,29.81,West,260,3.0,6.0,86,0.08,,---,0.60,26.00,VWS V14.00,2013-06-10 12:19:00,
2013-06-10 08:24:00,64.5,60.2,29.81,SSE,161,2.0,6.0,86,0.07,,---,0.60,65.00,VWS V14.00,2013-06-10 12:24:00,
2013-06-10 08:29:00,64.5,60.2,29.80,SSW,201,1.0,5.0,86,0.06,,---,0.60,97.00,VWS V14.00,2013-06-10 12:29:00,
2013-06-10 08:34:00,64.6,60.3,29.80,SW,219,1.0,5.0,86,0.04,,---,0.60,67.00,VWS V14.00,2013-06-10 12:34:00,
2013-06-10 08:39:00,64.7,60.4,29.81,SW,214,2.0,5.0,86,0.04,,---,0.60,54.00,VWS V14.00,2013-06-10 12:39:00,
2013-06-10 08:44:00,64.8,60.5,29.81,SSW,199,5.0,7.0,86,0.03,,---,0.60,37.00,VWS V14.00,2013-06-10 12:44:00,
2013-06-10 08:49:00,64.8,60.5,29.81,SSW,211,2.0,5.0,86,0.03,,---,0.60,42.00,VWS V14.00,2013-06-10 12:49:00,
2013-06-10 08:54:00,64.9,60.6,29.81,SSW,207,0.0,5.0,86,0.03,,---,0.60,49.00,VWS V14.00,2013-06-10 12:54:00,
2013-06-10 08:59:00,65.0,60.7,29.81,SSW,207,0.0,1.0,86,0.03,,---,0.60,127.00,VWS V14.00,2013-06-10 12:59:00,
2013-06-10 09:04:00,65.1,60.8,29.80,SSW,213,4.0,5.0,86,0.03,,---,0.60,111.00,VWS V14.00,2013-06-10 13:04:00,
2013-06-10 09:09:00,65.1,60.8,29.81,WSW,240,3.0,5.0,86,0.02,,---,0.60,83.00,VWS V14.00,2013-06-10 13:09:00,
2013-06-10 09:14:00,65.1,60.8,29.81,WSW,246,0.0,6.0,86,0.01,,---,0.60,62.00,VWS V14.00,2013-06-10 13:14:00,
2013-06-10 09:19:00,65.2,60.9,29.81,SW,227,1.0,5.0,86,0.01,,---,0.60,49.00,VWS V14.00,2013-06-10 13:19:00,
2013-06-10 09:24:00,65.2,60.9,29.81,WSW,243,2.0,6.0,86,0.00,,---,0.60,60.00,VWS V14.00,2013-06-10 13:24:00,
2013-06-10 09:29:00,65.2,60.9,29.82,SSW,200,5.0,7.0,86,0.00,,---,0.60,58.00,VWS V14.00,2013-06-10 13:29:00,
2013-06-10 09:34:00,65.3,61.0,29.82,SSW,199,3.0,7.0,86,0.00,,---,0.60,53.00,VWS V14.00,2013-06-10 13:34:00,
2013-06-10 09:39:00,65.3,61.0,29.82,West,261,0.0,6.0,86,0.00,,---,0.60,42.00,VWS V14.00,2013-06-10 13:39:00,
2013-06-10 09:44:00,65.3,61.0,29.82,WNW,297,2.0,8.0,86,0.00,,---,0.60,60.00,VWS V14.00,2013-06-10 13:44:00,
2013-06-10 09:49:00,65.4,61.1,29.82,West,267,2.0,6.0,86,0.00,,---,0.60,120.00,VWS V14.00,2013-06-10 13:49:00,
2013-06-10 09:54:00,65.6,61.3,29.82,SW,227,3.0,6.0,86,0.00,,---,0.60,104.00,VWS V14.00,2013-06-10 13:54:00,
2013-06-10 09:59:00,65.7,61.4,29.82,SW,217,5.0,9.0,86,0.00,,---,0.60,243.00,VWS V14.00,2013-06-10 13:59:00,
2013-06-10 10:04:00,65.8,61.5,29.82,WSW,251,5.0,9.0,86,0.00,,---,0.60,139.00,VWS V14.00,2013-06-10 14:04:00,
2013-06-10 10:09:00,66.0,61.7,29.82,West,280,6.0,8.0,86,0.00,,---,0.60,125.00,VWS V14.00,2013-06-10 14:09:00,
2013-06-10 10:14:00,66.1,61.8,29.82,WSW,253,4.0,7.0,86,0.00,,---,0.60,148.00,VWS V14.00,2013-06-10 14:14:00,
2013-06-10 10:19:00,66.1,61.8,29.82,WNW,288,0.0,9.0,86,0.00,,---,0.60,63.00,VWS V14.00,2013-06-10 14:19:00,
2013-06-10 10:24:00,66.2,61.9,29.82,SSW,211,1.0,8.0,86,0.00,,---,0.60,151.00,VWS V14.00,2013-06-10 14:24:00,
2013-06-10 10:29:00,66.3,62.3,29.82,West,279,4.0,7.0,87,0.00,,---,0.60,179.00,VWS V14.00,2013-06-10 14:29:00,
2013-06-10 10:34:00,66.4,62.4,29.81,SW,231,2.0,6.0,87,0.00,,---,0.60,190.00,VWS V14.00,2013-06-10 14:34:00,
2013-06-10 10:39:00,66.4,62.4,29.81,NW,306,2.0,9.0,87,0.00,,---,0.60,149.00,VWS V14.00,2013-06-10 14:39:00,
2013-06-10 10:44:00,66.6,62.6,29.81,NW,310,5.0,7.0,87,0.00,,---,0.60,204.00,VWS V14.00,2013-06-10 14:44:00,
2013-06-10 10:49:00,66.9,62.9,29.81,West,279,1.0,8.0,87,0.00,,---,0.60,483.00,VWS V14.00,2013-06-10 14:49:00,
2013-06-10 10:54:00,67.2,63.2,29.81,WSW,243,5.0,8.0,87,0.00,,---,0.60,571.00,VWS V14.00,2013-06-10 14:54:00,
2013-06-10 10:59:00,67.5,63.5,29.81,West,279,3.0,10.0,87,0.00,,---,0.60,403.00,VWS V14.00,2013-06-10 14:59:00,
2013-06-10 11:04:00,67.8,63.8,29.81,West,271,5.0,7.0,87,0.00,,---,0.60,294.00,VWS V14.00,2013-06-10 15:04:00,
2013-06-10 11:19:00,68.8,65.4,29.81,SW,220,7.0,13.0,89,0.00,,---,0.60,446.00,VWS V14.00,2013-06-10 15:19:00,
2013-06-10 11:24:00,69.3,65.9,29.81,West,273,3.0,9.0,89,0.00,,---,0.60,476.00,VWS V14.00,2013-06-10 15:24:00,
2013-06-10 11:29:00,69.7,66.6,29.81,WNW,292,7.0,8.0,90,0.00,,---,0.60,441.00,VWS V14.00,2013-06-10 15:29:00,
2013-06-10 11:34:00,69.9,66.8,29.81,SSW,209,6.0,10.0,90,0.00,,---,0.60,446.00,VWS V14.00,2013-06-10 15:34:00,
2013-06-10 11:39:00,70.4,67.3,29.81,NNW,336,5.0,10.0,90,0.00,,---,0.60,446.00,VWS V14.00,2013-06-10 15:39:00,
2013-06-10 11:44:00,70.6,67.2,29.81,NNW,333,5.0,9.0,89,0.00,,---,0.60,991.00,VWS V14.00,2013-06-10 15:44:00,
2013-06-10 11:49:00,70.6,67.2,29.81,WNW,293,6.0,7.0,89,0.00,,---,0.60,907.00,VWS V14.00,2013-06-10 15:49:00,
2013-06-10 11:54:00,70.8,67.1,29.81,WNW,293,5.0,12.0,88,0.00,,---,0.60,932.00,VWS V14.00,2013-06-10 15:54:00,
2013-06-10 11:59:00,71.2,67.5,29.81,WNW,288,4.0,11.0,88,0.00,,---,0.60,1072.00,VWS V14.00,2013-06-10 15:59:00,
2013-06-10 12:04:00,71.8,67.7,29.81,WNW,296,5.0,10.0,87,0.00,,---,0.60,1072.00,VWS V14.00,2013-06-10 16:04:00,
2013-06-10 12:09:00,72.1,67.7,29.80,WNW,298,6.0,11.0,86,0.00,,---,0.60,258.00,VWS V14.00,2013-06-10 16:09:00,
2013-06-10 12:14:00,72.2,67.4,29.80,West,274,7.0,11.0,85,0.00,,---,0.60,1020.00,VWS V14.00,2013-06-10 16:14:00,
2013-06-10 12:19:00,72.6,68.5,29.80,NW,316,4.0,8.0,87,0.00,,---,0.60,998.00,VWS V14.00,2013-06-10 16:19:00,
2013-06-10 12:24:00,73.0,67.5,29.80,WNW,294,8.0,13.0,83,0.00,,---,0.60,1102.00,VWS V14.00,2013-06-10 16:24:00,
2013-06-10 12:29:00,73.4,68.3,29.80,WSW,250,10.0,10.0,84,0.00,,---,0.60,1120.00,VWS V14.00,2013-06-10 16:29:00,
2013-06-10 12:34:00,73.6,67.8,29.80,NW,309,8.0,10.0,82,0.00,,---,0.60,413.00,VWS V14.00,2013-06-10 16:34:00,
2013-06-10 12:39:00,73.5,68.4,29.80,West,279,1.0,11.0,84,0.00,,---,0.60,338.00,VWS V14.00,2013-06-10 16:39:00,
2013-06-10 12:44:00,73.8,68.3,29.80,WNW,295,5.0,7.0,83,0.00,,---,0.60,1014.00,VWS V14.00,2013-06-10 16:44:00,
2013-06-10 12:49:00,74.2,68.0,29.80,NW,311,3.0,10.0,81,0.00,,---,0.60,998.00,VWS V14.00,2013-06-10 16:49:00,
2013-06-10 12:54:00,74.6,68.0,29.80,NW,311,8.0,9.0,80,0.00,,---,0.60,983.00,VWS V14.00,2013-06-10 16:54:00,
2013-06-10 12:59:00,74.5,67.2,29.80,NNW,328,6.0,14.0,78,0.00,,---,0.60,1056.00,VWS V14.00,2013-06-10 16:59:00,
2013-06-10 13:04:00,74.5,67.9,29.80,WNW,302,0.0,8.0,80,0.00,,---,0.60,294.00,VWS V14.00,2013-06-10 17:04:00,
2013-06-10 13:09:00,74.7,68.1,29.80,NW,324,0.0,7.0,80,0.00,,---,0.60,752.00,VWS V14.00,2013-06-10 17:09:00,
2013-06-10 13:15:00,75.0,68.1,29.79,WSW,242,5.0,8.0,79,0.00,,---,0.60,752.00,VWS V14.00,2013-06-10 17:15:00,
2013-06-10 13:20:00,75.2,67.9,29.79,WSW,252,3.0,4.0,78,0.00,,---,0.60,1099.00,VWS V14.00,2013-06-10 17:20:00,
2013-06-10 13:25:00,75.7,68.4,29.79,SW,230,2.0,8.0,78,0.00,,---,0.60,1160.00,VWS V14.00,2013-06-10 17:25:00,
2013-06-10 13:30:00,75.9,67.4,29.79,SSE,150,7.0,10.0,75,0.00,,---,0.60,301.00,VWS V14.00,2013-06-10 17:30:00,
2013-06-10 13:35:00,75.8,67.7,29.79,SW,215,2.0,5.0,76,0.00,,---,0.60,251.00,VWS V14.00,2013-06-10 17:35:00,
2013-06-10 13:40:00,75.7,68.7,29.79,NW,320,0.0,1.0,79,0.00,,---,0.60,364.00,VWS V14.00,2013-06-10 17:40:00,
2013-06-10 13:45:00,75.5,67.8,29.78,West,267,2.0,5.0,77,0.00,,---,0.60,362.00,VWS V14.00,2013-06-10 17:45:00,
2013-06-10 13:50:00,75.8,68.1,29.78,West,280,6.0,9.0,77,0.00,,---,0.60,1111.00,VWS V14.00,2013-06-10 17:50:00,
2013-06-10 13:55:00,76.4,68.3,29.78,WNW,287,6.0,9.0,76,0.00,,---,0.60,1223.00,VWS V14.00,2013-06-10 17:55:00,
2013-06-10 14:00:00,76.6,67.3,29.78,NNW,336,7.0,8.0,73,0.00,,---,0.60,1222.00,VWS V14.00,2013-06-10 18:00:00,
2013-06-10 14:05:00,76.2,67.3,29.78,WSW,246,4.0,6.0,74,0.00,,---,0.60,186.00,VWS V14.00,2013-06-10 18:05:00,
2013-06-10 14:10:00,75.8,66.9,29.79,SSW,196,1.0,7.0,74,0.00,,---,0.60,248.00,VWS V14.00,2013-06-10 18:10:00,
2013-06-10 14:15:00,75.5,66.6,29.79,WNW,294,2.0,6.0,74,0.00,,---,0.60,295.00,VWS V14.00,2013-06-10 18:15:00,
2013-06-10 14:20:00,75.3,66.4,29.78,SW,224,9.0,10.0,74,0.00,,---,0.60,176.00,VWS V14.00,2013-06-10 18:20:00,
2013-06-10 14:25:00,75.2,67.1,29.78,West,273,0.0,7.0,76,0.00,,---,0.60,244.00,VWS V14.00,2013-06-10 18:25:00,
2013-06-10 14:30:00,75.3,68.0,29.78,SW,230,7.0,10.0,78,0.00,,---,0.60,1164.00,VWS V14.00,2013-06-10 18:30:00,
2013-06-10 14:35:00,75.7,68.0,29.78,NNW,331,10.0,10.0,77,0.00,,---,0.60,357.00,VWS V14.00,2013-06-10 18:35:00,
2013-06-10 14:40:00,75.7,67.6,29.78,West,274,4.0,9.0,76,0.00,,---,0.60,536.00,VWS V14.00,2013-06-10 18:40:00,
2013-06-10 14:45:00,75.9,67.0,29.78,WSW,251,7.0,8.0,74,0.00,,---,0.60,977.00,VWS V14.00,2013-06-10 18:45:00,
2013-06-10 14:54:00,76.2,67.3,29.78,WSW,258,1.0,9.0,74,0.00,,---,0.60,292.00,VWS V14.00,2013-06-10 18:54:00,
2013-06-10 15:04:00,75.2,66.0,29.78,WNW,294,5.0,11.0,73,0.00,,---,0.60,118.00,VWS V14.00,2013-06-10 19:04:00,
2013-06-10 15:09:00,74.7,66.6,29.79,NW,313,5.0,12.0,76,0.00,,---,0.60,172.00,VWS V14.00,2013-06-10 19:09:00,
2013-06-10 15:16:00,73.0,66.1,29.78,WNW,300,1.0,4.0,79,0.02,,---,0.62,304.00,VWS V14.00,2013-06-10 19:16:00,
2013-06-10 15:21:00,72.3,66.5,29.78,WNW,301,0.0,2.0,82,0.02,,---,0.62,396.00,VWS V14.00,2013-06-10 19:21:00,
2013-06-10 15:26:00,72.0,66.2,29.78,NW,311,2.0,4.0,82,0.02,,---,0.62,246.00,VWS V14.00,2013-06-10 19:26:00,
2013-06-10 15:32:00,72.0,66.6,29.78,NW,315,2.0,6.0,83,0.02,,---,0.62,373.00,VWS V14.00,2013-06-10 19:32:00,
2013-06-10 15:37:00,72.3,67.5,29.77,NW,326,1.0,5.0,85,0.02,,---,0.62,473.00,VWS V14.00,2013-06-10 19:37:00,
2013-06-10 15:42:00,72.8,68.0,29.77,NW,315,4.0,5.0,85,0.02,,---,0.62,886.00,VWS V14.00,2013-06-10 19:42:00,
2013-06-10 15:47:00,73.2,68.4,29.77,WNW,296,5.0,5.0,85,0.02,,---,0.62,972.00,VWS V14.00,2013-06-10 19:47:00,
2013-06-10 15:52:00,73.9,69.1,29.76,NW,319,1.0,5.0,85,0.02,,---,0.62,722.00,VWS V14.00,2013-06-10 19:52:00,
2013-06-10 16:39:00,71.0,66.3,29.77,WSW,256,2.0,7.0,85,0.05,,---,0.67,193.00,VWS V14.00,2013-06-10 20:39:00,
2013-06-10 16:44:00,70.7,66.7,29.77,WNW,298,6.0,6.0,87,0.05,,---,0.67,174.00,VWS V14.00,2013-06-10 20:44:00,
2013-06-10 16:49:00,70.4,66.3,29.77,NW,306,7.0,7.0,87,0.05,,---,0.67,107.00,VWS V14.00,2013-06-10 20:49:00,
2013-06-10 16:54:00,69.9,65.9,29.77,WNW,302,7.0,15.0,87,0.05,,---,0.67,139.00,VWS V14.00,2013-06-10 20:54:00,
2013-06-10 16:59:00,69.4,65.0,29.77,WNW,300,5.0,10.0,86,0.05,,---,0.67,139.00,VWS V14.00,2013-06-10 20:59:00,
2013-06-10 17:04:00,69.0,65.0,29.78,NW,315,4.0,7.0,87,0.05,,---,0.67,144.00,VWS V14.00,2013-06-10 21:04:00,
2013-06-10 17:09:00,68.7,64.7,29.77,NW,319,6.0,8.0,87,0.05,,---,0.67,127.00,VWS V14.00,2013-06-10 21:09:00,
2013-06-10 17:14:00,68.5,64.2,29.77,NW,304,5.0,7.0,86,0.05,,---,0.67,104.00,VWS V14.00,2013-06-10 21:14:00,
2013-06-10 17:19:00,68.5,64.5,29.78,WNW,292,2.0,6.0,87,0.05,,---,0.67,120.00,VWS V14.00,2013-06-10 21:19:00,
2013-06-10 17:24:00,68.4,64.7,29.78,WNW,296,4.0,4.0,88,0.05,,---,0.67,135.00,VWS V14.00,2013-06-10 21:24:00,
2013-06-10 17:29:00,68.3,64.6,29.78,WNW,284,3.0,5.0,88,0.03,,---,0.67,162.00,VWS V14.00,2013-06-10 21:29:00,
2013-06-10 17:34:00,68.3,64.6,29.78,West,261,2.0,5.0,88,0.01,,---,0.67,179.00,VWS V14.00,2013-06-10 21:34:00,
2013-06-10 17:39:00,68.4,64.7,29.78,NW,309,4.0,7.0,88,0.00,,---,0.67,197.00,VWS V14.00,2013-06-10 21:39:00,
2013-06-10 17:44:00,68.6,64.9,29.78,NW,315,5.0,8.0,88,0.00,,---,0.67,223.00,VWS V14.00,2013-06-10 21:44:00,
2013-06-10 17:49:00,68.8,65.1,29.78,West,271,5.0,7.0,88,0.00,,---,0.67,246.00,VWS V14.00,2013-06-10 21:49:00,
2013-06-10 17:54:00,69.1,65.4,29.78,WNW,298,4.0,8.0,88,0.00,,---,0.67,316.00,VWS V14.00,2013-06-10 21:54:00,
2013-06-10 17:59:00,69.6,65.9,29.78,WNW,294,5.0,11.0,88,0.00,,---,0.67,390.00,VWS V14.00,2013-06-10 21:59:00,
2013-06-10 18:04:00,70.4,66.7,29.78,West,281,2.0,8.0,88,0.00,,---,0.67,339.00,VWS V14.00,2013-06-10 22:04:00,
2013-06-10 18:09:00,70.7,66.0,29.78,WSW,251,7.0,10.0,85,0.00,,---,0.67,285.00,VWS V14.00,2013-06-10 22:09:00,
2013-06-10 18:14:00,71.0,66.6,29.78,NNW,327,7.0,9.0,86,0.00,,---,0.67,541.00,VWS V14.00,2013-06-10 22:14:00,
2013-06-10 18:19:00,71.3,66.6,29.79,WNW,297,8.0,12.0,85,0.00,,---,0.67,127.00,VWS V14.00,2013-06-10 22:19:00,
2013-06-10 18:24:00,71.3,65.9,29.78,NW,304,3.0,12.0,83,0.00,,---,0.67,236.00,VWS V14.00,2013-06-10 22:24:00,
2013-06-10 18:29:00,71.4,66.3,29.78,NNW,328,6.0,10.0,84,0.00,,---,0.67,381.00,VWS V14.00,2013-06-10 22:29:00,
2013-06-10 18:34:00,71.7,66.9,29.78,WNW,302,0.0,7.0,85,0.00,,---,0.67,547.00,VWS V14.00,2013-06-10 22:34:00,
2013-06-10 18:39:00,72.3,66.8,29.78,WNW,293,5.0,8.0,83,0.00,,---,0.67,352.00,VWS V14.00,2013-06-10 22:39:00,
2013-06-10 18:44:00,72.6,66.4,29.78,NW,304,7.0,14.0,81,0.00,,---,0.67,352.00,VWS V14.00,2013-06-10 22:44:00,
2013-06-10 18:49:00,72.5,66.3,29.78,NW,321,6.0,10.0,81,0.00,,---,0.67,114.00,VWS V14.00,2013-06-10 22:49:00,
2013-06-10 18:54:00,72.2,66.1,29.79,WNW,298,6.0,9.0,81,0.00,,---,0.67,102.00,VWS V14.00,2013-06-10 22:54:00,
2013-06-10 18:59:00,71.9,66.1,29.79,NW,307,4.0,11.0,82,0.00,,---,0.67,160.00,VWS V14.00,2013-06-10 22:59:00,
2013-06-10 19:04:00,71.7,65.9,29.79,WNW,290,4.0,9.0,82,0.00,,---,0.67,311.00,VWS V14.00,2013-06-10 23:04:00,
2013-06-10 19:09:00,71.8,66.0,29.79,NW,311,7.0,9.0,82,0.00,,---,0.67,265.00,VWS V14.00,2013-06-10 23:09:00,
2013-06-10 19:14:00,72.1,66.3,29.79,WNW,284,4.0,10.0,82,0.00,,---,0.67,255.00,VWS V14.00,2013-06-10 23:14:00,
2013-06-10 19:19:00,72.3,66.5,29.79,WNW,284,5.0,11.0,82,0.00,,---,0.67,257.00,VWS V14.00,2013-06-10 23:19:00,
2013-06-10 19:24:00,72.5,66.7,29.79,NW,319,2.0,8.0,82,0.00,,---,0.67,262.00,VWS V14.00,2013-06-10 23:24:00,
2013-06-10 19:29:00,72.7,66.2,29.79,WSW,246,3.0,12.0,80,0.00,,---,0.67,230.00,VWS V14.00,2013-06-10 23:29:00,
2013-06-10 19:34:00,72.9,66.7,29.79,NNW,335,7.0,8.0,81,0.00,,---,0.67,202.00,VWS V14.00,2013-06-10 23:34:00,
2013-06-10 19:39:00,72.9,66.7,29.79,NW,309,5.0,9.0,81,0.00,,---,0.67,130.00,VWS V14.00,2013-06-10 23:39:00,
2013-06-10 19:44:00,72.8,66.6,29.79,WNW,301,1.0,10.0,81,0.00,,---,0.67,98.00,VWS V14.00,2013-06-10 23:44:00,
2013-06-10 19:49:00,72.6,66.4,29.79,NW,306,5.0,9.0,81,0.00,,---,0.67,54.00,VWS V14.00,2013-06-10 23:49:00,
2013-06-10 19:54:00,72.2,66.1,29.79,West,281,0.0,10.0,81,0.00,,---,0.67,32.00,VWS V14.00,2013-06-10 23:54:00,
2013-06-10 19:59:00,71.9,66.1,29.78,West,281,4.0,9.0,82,0.00,,---,0.67,30.00,VWS V14.00,2013-06-10 23:59:00,
2013-06-10 20:04:00,71.6,65.8,29.79,WNW,284,2.0,8.0,82,0.00,,---,0.67,30.00,VWS V14.00,2013-06-11 00:04:00,
2013-06-10 20:09:00,71.4,66.0,29.79,WNW,288,1.0,6.0,83,0.00,,---,0.67,44.00,VWS V14.00,2013-06-11 00:09:00,
2013-06-10 20:14:00,71.2,65.8,29.79,West,279,2.0,6.0,83,0.00,,---,0.67,46.00,VWS V14.00,2013-06-11 00:14:00,
2013-06-10 20:19:00,71.1,66.0,29.79,West,271,4.0,6.0,84,0.00,,---,0.67,37.00,VWS V14.00,2013-06-11 00:19:00,
2013-06-10 20:24:00,70.9,65.8,29.79,WSW,249,4.0,7.0,84,0.00,,---,0.67,35.00,VWS V14.00,2013-06-11 00:24:00,
2013-06-10 20:29:00,70.8,65.7,29.79,WNW,293,5.0,8.0,84,0.00,,---,0.67,37.00,VWS V14.00,2013-06-11 00:29:00,
2013-06-10 20:34:00,70.8,65.7,29.79,WNW,286,5.0,6.0,84,0.00,,---,0.67,33.00,VWS V14.00,2013-06-11 00:34:00,
2013-06-10 20:39:00,70.7,65.6,29.80,NW,309,2.0,6.0,84,0.00,,---,0.67,25.00,VWS V14.00,2013-06-11 00:39:00,
2013-06-10 20:44:00,70.6,65.5,29.80,NW,323,1.0,5.0,84,0.00,,---,0.67,12.00,VWS V14.00,2013-06-11 00:44:00,
2013-06-10 20:49:00,70.6,65.5,29.80,NW,321,2.0,6.0,84,0.00,,---,0.67,7.00,VWS V14.00,2013-06-11 00:49:00,
2013-06-10 20:54:00,70.6,65.9,29.80,NW,306,2.0,3.0,85,0.00,,---,0.67,5.00,VWS V14.00,2013-06-11 00:54:00,
2013-06-10 20:59:00,70.5,65.8,29.80,WNW,298,5.0,5.0,85,0.00,,---,0.67,7.00,VWS V14.00,2013-06-11 00:59:00,
2013-06-10 21:04:00,70.5,65.8,29.81,NNW,327,4.0,8.0,85,0.00,,---,0.67,5.00,VWS V14.00,2013-06-11 01:04:00,
2013-06-10 21:09:00,70.2,65.8,29.81,NW,320,0.0,6.0,86,0.02,,---,0.69,0.00,VWS V14.00,2013-06-11 01:09:00,
2013-06-10 21:14:00,69.8,65.8,29.81,WNW,302,2.0,4.0,87,0.02,,---,0.69,0.00,VWS V14.00,2013-06-11 01:14:00,
2013-06-10 21:19:00,69.2,65.5,29.81,NW,307,1.0,7.0,88,0.02,,---,0.69,0.00,VWS V14.00,2013-06-11 01:19:00,
2013-06-10 21:24:00,68.7,65.0,29.81,WNW,301,2.0,5.0,88,0.02,,---,0.69,0.00,VWS V14.00,2013-06-11 01:24:00,
2013-06-10 21:29:00,68.4,65.0,29.81,WNW,300,2.0,5.0,89,0.02,,---,0.69,0.00,VWS V14.00,2013-06-11 01:29:00,
2013-06-10 21:34:00,68.1,64.7,29.81,WSW,258,1.0,5.0,89,0.02,,---,0.69,0.00,VWS V14.00,2013-06-11 01:34:00,
2013-06-10 21:39:00,67.9,64.5,29.81,WNW,285,4.0,8.0,89,0.02,,---,0.69,0.00,VWS V14.00,2013-06-11 01:39:00,
2013-06-10 21:44:00,67.8,64.4,29.81,NW,309,4.0,5.0,89,0.02,,---,0.69,0.00,VWS V14.00,2013-06-11 01:44:00,
2013-06-10 21:49:00,67.6,64.2,29.81,NW,320,4.0,5.0,89,0.02,,---,0.69,0.00,VWS V14.00,2013-06-11 01:49:00,
2013-06-10 21:54:00,67.4,64.1,29.82,West,281,1.0,5.0,89,0.02,,---,0.69,0.00,VWS V14.00,2013-06-11 01:54:00,
2013-06-10 21:59:00,67.2,63.8,29.82,WNW,283,1.0,4.0,89,0.02,,---,0.69,0.00,VWS V14.00,2013-06-11 01:59:00,
2013-06-10 22:04:00,67.1,63.8,29.82,WNW,282,1.0,5.0,89,0.02,,---,0.69,0.00,VWS V14.00,2013-06-11 02:04:00,
2013-06-10 22:09:00,66.9,63.6,29.83,WSW,249,0.0,4.0,89,0.02,,---,0.69,0.00,VWS V14.00,2013-06-11 02:09:00,
2013-06-10 22:14:00,66.8,63.5,29.82,WNW,290,2.0,4.0,89,0.00,,---,0.69,0.00,VWS V14.00,2013-06-11 02:14:00,
2013-06-10 22:19:00,66.7,63.0,29.83,WNW,290,2.0,6.0,88,0.00,,---,0.69,0.00,VWS V14.00,2013-06-11 02:19:00,
2013-06-10 22:24:00,66.6,62.9,29.83,West,277,4.0,5.0,88,0.00,,---,0.69,0.00,VWS V14.00,2013-06-11 02:24:00,
2013-06-10 22:29:00,66.5,62.8,29.83,WNW,288,2.0,4.0,88,0.00,,---,0.69,0.00,VWS V14.00,2013-06-11 02:29:00,
2013-06-10 22:34:00,66.4,62.7,29.83,WNW,299,3.0,3.0,88,0.00,,---,0.69,0.00,VWS V14.00,2013-06-11 02:34:00,
2013-06-10 22:39:00,66.4,62.7,29.83,NW,305,0.0,5.0,88,0.00,,---,0.69,0.00,VWS V14.00,2013-06-11 02:39:00,
2013-06-10 22:44:00,66.3,62.6,29.83,WNW,285,2.0,5.0,88,0.00,,---,0.69,0.00,VWS V14.00,2013-06-11 02:44:00,
2013-06-10 22:49:00,66.2,62.5,29.83,NW,308,4.0,5.0,88,0.00,,---,0.69,0.00,VWS V14.00,2013-06-11 02:49:00,
2013-06-10 22:54:00,66.1,62.5,29.84,WNW,298,0.0,5.0,88,0.00,,---,0.69,0.00,VWS V14.00,2013-06-11 02:54:00,
2013-06-10 22:59:00,65.9,62.2,29.84,West,271,4.0,7.0,88,0.00,,---,0.69,0.00,VWS V14.00,2013-06-11 02:59:00,
2013-06-10 23:04:00,65.8,62.2,29.83,West,277,1.0,7.0,88,0.00,,---,0.69,0.00,VWS V14.00,2013-06-11 03:04:00,
2013-06-10 23:10:00,65.8,62.2,29.83,WNW,291,4.0,5.0,88,0.00,,---,0.69,0.00,VWS V14.00,2013-06-11 03:10:00,
2013-06-10 23:15:00,65.8,62.2,29.84,NW,311,2.0,3.0,88,0.00,,---,0.69,0.00,VWS V14.00,2013-06-11 03:15:00,
2013-06-10 23:20:00,65.8,62.2,29.84,WNW,282,1.0,4.0,88,0.00,,---,0.69,0.00,VWS V14.00,2013-06-11 03:20:00,
2013-06-10 23:25:00,65.8,62.2,29.84,WNW,296,2.0,5.0,88,0.00,,---,0.69,0.00,VWS V14.00,2013-06-11 03:25:00,
2013-06-10 23:30:00,65.8,62.2,29.84,West,267,0.0,5.0,88,0.00,,---,0.69,0.00,VWS V14.00,2013-06-11 03:30:00,
2013-06-10 23:35:00,65.8,62.5,29.84,West,273,2.0,5.0,89,0.00,,---,0.69,0.00,VWS V14.00,2013-06-11 03:35:00,
2013-06-10 23:40:00,65.8,62.5,29.84,NW,310,4.0,6.0,89,0.00,,---,0.69,0.00,VWS V14.00,2013-06-11 03:40:00,
2013-06-10 23:45:00,65.7,62.4,29.84,West,281,3.0,4.0,89,0.00,,---,0.69,0.00,VWS V14.00,2013-06-11 03:45:00,
2013-06-10 23:50:00,65.7,62.4,29.84,WNW,303,2.0,5.0,89,0.00,,---,0.69,0.00,VWS V14.00,2013-06-11 03:50:00,
2013-06-10 23:55:00,65.7,62.4,29.84,WNW,293,4.0,9.0,89,0.00,,---,0.00,0.00,VWS V14.00,2013-06-11 03:55:00,